Time;durP1;ratioP1;P1;durP2;ratioP2;P2;SDS_P1;SDS_P2;PMS_P1;PMS_P2;Temp;Humidity;BMP_temperature;BMP_pressure;BME280_temperature;BME280_humidity;BME280_pressure;Samples;Min_cycle;Max_cycle;Signal;HPM_P1;HPM_P2
2023/04/24 00:01:25;;;;;;;;;;;12.00;70.50;;;;;;9177060;19;19922;-70
2023/04/24 00:04:33;;;;;;;;;;;12.00;70.70;;;;;;9181209;19;19926;-70
2023/04/24 00:07:36;;;;;;;;;;;11.90;70.40;;;;;;9177903;19;19932;-70
2023/04/24 00:10:44;;;;;;;;;;;11.90;70.20;;;;;;9170869;19;20015;-70
2023/04/24 00:13:48;;;;;;;;;;;11.90;71.00;;;;;;9176141;19;19922;-70
2023/04/24 00:16:54;;;;;;;;;;;11.90;71.00;;;;;;9177759;19;19922;-70
2023/04/24 00:19:58;;;;;;;;;;;11.90;70.70;;;;;;9172215;19;19926;-70
2023/04/24 00:23:04;;;;;;;;;;;11.90;71.00;;;;;;9179800;19;19919;-72
2023/04/24 00:26:10;;;;;;;;;;;11.90;70.70;;;;;;9177924;19;19918;-70
2023/04/24 00:29:15;;;;;;;;;;;11.90;70.90;;;;;;9170456;19;19922;-70
2023/04/24 00:32:19;;;;;;;;;;;11.90;71.10;;;;;;9175505;19;20340;-70
2023/04/24 00:35:34;;;;;;;;;;;11.90;70.70;;;;;;9180553;19;20310;-70
2023/04/24 00:38:38;;;;;;;;;;;11.80;71.10;;;;;;9167942;19;19933;-70
2023/04/24 00:41:47;;;;;;;;;;;11.80;70.60;;;;;;9172198;19;19918;-70
2023/04/24 00:44:51;;;;;;;;;;;11.80;70.60;;;;;;9172260;19;19919;-70
2023/04/24 00:47:57;;;;;;;;;;;11.80;70.90;;;;;;9175756;19;19915;-70
2023/04/24 00:51:01;;;;;;;;;;;11.80;70.80;;;;;;9171092;19;20376;-70
2023/04/24 00:54:07;;;;;;;;;;;11.80;70.90;;;;;;9177866;19;19915;-70
2023/04/24 00:57:13;;;;;;;;;;;11.80;70.70;;;;;;9172379;19;19927;-70
2023/04/24 01:00:19;;;;;;;;;;;11.80;70.70;;;;;;9168371;19;19929;-70
2023/04/24 01:03:23;;;;;;;;;;;11.80;71.00;;;;;;9175686;19;19928;-70
2023/04/24 01:06:31;;;;;;;;;;;11.80;71.20;;;;;;9172731;19;19919;-69
2023/04/24 01:09:34;;;;;;;;;;;11.70;71.20;;;;;;9169456;19;19922;-69
2023/04/24 01:12:42;;;;;;;;;;;11.70;71.10;;;;;;9173877;19;20268;-69
2023/04/24 01:15:48;;;;;;;;;;;11.70;70.70;;;;;;9169456;19;20360;-69
2023/04/24 01:18:54;;;;;;;;;;;11.80;71.00;;;;;;9170691;19;19915;-70
2023/04/24 01:22:00;;;;;;;;;;;11.80;70.70;;;;;;9177922;19;19922;-69
2023/04/24 01:25:08;;;;;;;;;;;11.80;70.90;;;;;;9174527;19;19950;-70
2023/04/24 01:28:13;;;;;;;;;;;11.80;70.60;;;;;;9175568;19;20272;-69
2023/04/24 01:31:20;;;;;;;;;;;11.80;71.20;;;;;;9177280;19;20351;-69
2023/04/24 01:34:23;;;;;;;;;;;11.80;71.00;;;;;;9172451;19;19951;-69
2023/04/24 01:37:32;;;;;;;;;;;11.80;71.20;;;;;;9161142;19;19915;-69
2023/04/24 01:40:37;;;;;;;;;;;11.70;71.40;;;;;;9176736;19;19933;-69
2023/04/24 01:43:43;;;;;;;;;;;11.80;71.70;;;;;;9169572;19;20206;-69
2023/04/24 01:46:47;;;;;;;;;;;11.80;71.10;;;;;;9174624;19;19926;-70
2023/04/24 01:49:53;;;;;;;;;;;11.80;71.30;;;;;;9171812;19;19922;-70
2023/04/24 01:52:56;;;;;;;;;;;11.90;71.30;;;;;;9166171;19;19926;-70
2023/04/24 01:56:04;;;;;;;;;;;11.80;71.50;;;;;;9166832;19;19919;-69
2023/04/24 01:59:09;;;;;;;;;;;11.90;71.40;;;;;;9169500;19;19936;-69
2023/04/24 02:02:14;;;;;;;;;;;11.90;71.30;;;;;;9167855;19;19920;-69
2023/04/24 02:05:18;;;;;;;;;;;11.90;71.40;;;;;;9165963;19;19923;-69
2023/04/24 02:08:24;;;;;;;;;;;11.90;71.70;;;;;;9168698;19;19921;-69
2023/04/24 02:11:30;;;;;;;;;;;11.80;71.10;;;;;;9169251;19;20341;-71
2023/04/24 02:14:36;;;;;;;;;;;11.90;71.50;;;;;;9171536;19;19922;-69
2023/04/24 02:17:40;;;;;;;;;;;11.90;71.50;;;;;;9169631;19;19930;-69
2023/04/24 02:20:46;;;;;;;;;;;11.90;71.10;;;;;;9168428;19;20011;-69
2023/04/24 02:23:52;;;;;;;;;;;11.90;71.00;;;;;;9168626;19;19911;-71
2023/04/24 02:27:00;;;;;;;;;;;11.80;71.50;;;;;;9175100;19;19918;-70
2023/04/24 02:30:04;;;;;;;;;;;11.90;71.40;;;;;;9172553;19;19954;-68
2023/04/24 02:33:10;;;;;;;;;;;11.90;71.70;;;;;;9167554;19;19929;-70
2023/04/24 02:36:15;;;;;;;;;;;11.90;71.30;;;;;;9161691;19;19930;-71
2023/04/24 02:39:20;;;;;;;;;;;11.90;71.40;;;;;;9168638;19;19923;-70
2023/04/24 02:42:26;;;;;;;;;;;11.90;71.90;;;;;;9167324;19;19923;-70
2023/04/24 02:45:34;;;;;;;;;;;11.80;71.30;;;;;;9168943;19;19921;-70
2023/04/24 02:48:38;;;;;;;;;;;11.90;71.40;;;;;;9175369;19;19942;-70
2023/04/24 02:51:44;;;;;;;;;;;11.90;71.30;;;;;;9177821;19;19915;-71
2023/04/24 02:54:48;;;;;;;;;;;11.80;71.10;;;;;;9174805;19;20846;-71
2023/04/24 02:57:56;;;;;;;;;;;11.80;71.30;;;;;;9177333;19;19918;-71
2023/04/24 03:01:00;;;;;;;;;;;11.80;71.30;;;;;;9180176;19;19918;-70
2023/04/24 03:04:05;;;;;;;;;;;11.90;71.60;;;;;;9172027;19;20352;-71
2023/04/24 03:07:09;;;;;;;;;;;11.90;71.40;;;;;;9176175;19;19930;-71
2023/04/24 03:10:16;;;;;;;;;;;11.80;71.20;;;;;;9177770;19;19914;-70
2023/04/24 03:13:21;;;;;;;;;;;11.80;71.40;;;;;;9169703;19;19919;-71
2023/04/24 03:16:27;;;;;;;;;;;11.80;71.30;;;;;;9180723;19;20355;-71
2023/04/24 03:19:31;;;;;;;;;;;11.80;71.60;;;;;;9180700;19;19915;-70
2023/04/24 03:22:43;;;;;;;;;;;11.80;71.40;;;;;;9180231;19;19922;-71
2023/04/24 03:25:48;;;;;;;;;;;11.90;71.30;;;;;;9180744;19;19918;-70
2023/04/24 03:28:56;;;;;;;;;;;11.80;71.10;;;;;;9180516;19;19929;-70
2023/04/24 03:32:00;;;;;;;;;;;11.80;70.90;;;;;;9180235;19;19922;-71
2023/04/24 03:35:07;;;;;;;;;;;11.80;71.30;;;;;;9180782;19;19933;-71
2023/04/24 03:38:11;;;;;;;;;;;11.70;71.20;;;;;;9176573;19;19918;-71
2023/04/24 03:41:32;;;;;;;;;;;11.80;71.20;;;;;;9181379;19;19933;-71
2023/04/24 03:44:46;;;;;;;;;;;11.70;71.30;;;;;;9181134;19;20378;-71
2023/04/24 03:47:53;;;;;;;;;;;11.80;71.30;;;;;;9180169;19;19911;-71
2023/04/24 03:50:57;;;;;;;;;;;11.80;72.20;;;;;;9182131;19;20333;-71
2023/04/24 03:54:03;;;;;;;;;;;11.80;72.00;;;;;;9179545;19;19915;-71
2023/04/24 03:57:08;;;;;;;;;;;11.80;71.40;;;;;;9176527;19;19922;-70
2023/04/24 04:00:20;;;;;;;;;;;11.80;71.50;;;;;;9166228;19;19926;-71
2023/04/24 04:03:30;;;;;;;;;;;11.80;71.90;;;;;;9178119;19;20341;-71
2023/04/24 04:06:37;;;;;;;;;;;11.80;71.60;;;;;;9179428;19;19929;-71
2023/04/24 04:09:41;;;;;;;;;;;11.70;71.50;;;;;;9179266;19;20352;-70
2023/04/24 04:12:47;;;;;;;;;;;11.80;71.90;;;;;;9174590;19;19922;-70
2023/04/24 04:15:53;;;;;;;;;;;11.80;71.80;;;;;;9180431;19;20348;-71
2023/04/24 04:18:59;;;;;;;;;;;11.70;71.60;;;;;;9180335;19;19930;-70
2023/04/24 04:22:03;;;;;;;;;;;11.70;72.10;;;;;;9180366;19;20344;-71
2023/04/24 04:25:22;;;;;;;;;;;11.70;71.70;;;;;;9178420;19;19929;-71
2023/04/24 04:28:26;;;;;;;;;;;11.70;71.80;;;;;;9178822;19;20308;-71
2023/04/24 04:31:34;;;;;;;;;;;11.80;71.80;;;;;;9177995;19;19915;-70
2023/04/24 04:34:45;;;;;;;;;;;11.70;71.60;;;;;;9178368;19;20341;-71
2023/04/24 04:37:51;;;;;;;;;;;11.70;71.60;;;;;;9172867;19;19922;-71
2023/04/24 04:41:06;;;;;;;;;;;11.80;72.00;;;;;;9177615;19;20260;-70
2023/04/24 04:44:13;;;;;;;;;;;11.70;71.50;;;;;;9179244;19;19922;-70
2023/04/24 04:47:19;;;;;;;;;;;11.70;71.80;;;;;;9177551;19;19930;-68
2023/04/24 04:50:26;;;;;;;;;;;11.70;72.20;;;;;;9177983;19;19911;-71
2023/04/24 04:53:37;;;;;;;;;;;11.70;71.80;;;;;;9174661;19;20340;-71
2023/04/24 04:56:42;;;;;;;;;;;11.70;72.10;;;;;;9176094;19;19922;-69
2023/04/24 04:59:46;;;;;;;;;;;11.70;71.80;;;;;;9177062;19;19956;-71
2023/04/24 05:03:02;;;;;;;;;;;11.60;72.00;;;;;;9176913;19;19919;-70
2023/04/24 05:06:25;;;;;;;;;;;11.60;72.10;;;;;;9177616;19;19927;-70
2023/04/24 05:09:33;;;;;;;;;;;11.60;71.90;;;;;;9177727;19;19922;-70
2023/04/24 05:12:39;;;;;;;;;;;11.60;71.80;;;;;;9175364;19;19918;-70
2023/04/24 05:15:46;;;;;;;;;;;11.60;71.80;;;;;;9176564;19;19926;-67
2023/04/24 05:18:53;;;;;;;;;;;11.60;72.30;;;;;;9171927;19;19926;-67
2023/04/24 05:22:06;;;;;;;;;;;11.60;72.10;;;;;;9169564;19;19925;-67
2023/04/24 05:25:14;;;;;;;;;;;11.60;71.50;;;;;;9174676;19;19919;-67
2023/04/24 05:28:36;;;;;;;;;;;11.60;72.00;;;;;;9176438;19;19918;-67
2023/04/24 05:31:44;;;;;;;;;;;11.50;71.80;;;;;;9175550;19;20015;-67
2023/04/24 05:34:52;;;;;;;;;;;11.50;71.80;;;;;;9176457;19;19923;-68
2023/04/24 05:38:12;;;;;;;;;;;11.50;71.90;;;;;;9172677;19;19919;-67
2023/04/24 05:41:18;;;;;;;;;;;11.40;72.00;;;;;;9175951;19;19922;-68
2023/04/24 05:44:21;;;;;;;;;;;11.40;72.10;;;;;;9178107;19;20264;-66
2023/04/24 05:47:27;;;;;;;;;;;11.50;72.60;;;;;;9175684;19;19921;-68
2023/04/24 05:50:33;;;;;;;;;;;11.40;72.80;;;;;;9177790;19;19946;-66
2023/04/24 05:53:42;;;;;;;;;;;11.50;72.30;;;;;;9171060;19;19911;-66
2023/04/24 05:56:46;;;;;;;;;;;11.40;72.30;;;;;;9175018;19;19919;-66
2023/04/24 05:59:58;;;;;;;;;;;11.40;72.30;;;;;;9174513;19;20312;-65
2023/04/24 06:03:03;;;;;;;;;;;11.50;72.70;;;;;;9173860;19;19927;-65
2023/04/24 06:06:11;;;;;;;;;;;11.40;72.40;;;;;;9174614;19;19922;-66
2023/04/24 06:09:16;;;;;;;;;;;11.40;72.30;;;;;;9174954;19;20264;-67
2023/04/24 06:12:23;;;;;;;;;;;11.50;72.30;;;;;;9160991;19;19919;-66
2023/04/24 06:15:33;;;;;;;;;;;11.40;72.30;;;;;;9167126;19;19938;-65
2023/04/24 06:18:58;;;;;;;;;;;11.40;72.80;;;;;;9167949;19;19929;-66
2023/04/24 06:22:04;;;;;;;;;;;11.40;72.30;;;;;;9166479;19;19911;-66
2023/04/24 06:25:10;;;;;;;;;;;11.40;72.70;;;;;;9172206;19;19922;-66
2023/04/24 06:28:14;;;;;;;;;;;11.40;72.60;;;;;;9173867;19;20467;-66
2023/04/24 06:31:19;;;;;;;;;;;11.40;72.50;;;;;;9171329;19;19930;-66
2023/04/24 06:34:23;;;;;;;;;;;11.40;72.70;;;;;;9168842;19;20035;-66
2023/04/24 06:37:32;;;;;;;;;;;11.40;72.50;;;;;;9166012;19;19981;-66
2023/04/24 06:40:35;;;;;;;;;;;11.40;72.80;;;;;;9170440;19;19931;-66
2023/04/24 06:43:41;;;;;;;;;;;11.30;72.50;;;;;;9176648;19;19922;-66
2023/04/24 06:46:45;;;;;;;;;;;11.30;72.40;;;;;;9183223;19;19964;-67
2023/04/24 06:49:52;;;;;;;;;;;11.30;72.60;;;;;;9180727;19;19914;-66
2023/04/24 06:52:57;;;;;;;;;;;11.30;73.00;;;;;;9181421;19;19923;-66
2023/04/24 06:56:03;;;;;;;;;;;11.40;72.70;;;;;;9181637;19;19930;-66
2023/04/24 06:59:07;;;;;;;;;;;11.30;72.90;;;;;;9177083;19;19918;-67
2023/04/24 07:02:13;;;;;;;;;;;11.30;73.50;;;;;;9182352;19;19926;-67
2023/04/24 07:05:19;;;;;;;;;;;11.30;73.10;;;;;;9181998;19;19938;-67
2023/04/24 07:08:28;;;;;;;;;;;11.30;72.90;;;;;;9183006;19;19956;-66
2023/04/24 07:11:32;;;;;;;;;;;11.30;73.30;;;;;;9182299;19;20252;-66
2023/04/24 07:14:38;;;;;;;;;;;11.30;72.90;;;;;;9179686;19;20366;-67
2023/04/24 07:17:43;;;;;;;;;;;11.20;72.70;;;;;;9182735;19;20348;-67
2023/04/24 07:20:49;;;;;;;;;;;11.20;72.80;;;;;;9181130;19;19934;-67
2023/04/24 07:23:55;;;;;;;;;;;11.20;72.70;;;;;;9182106;19;19923;-67
2023/04/24 07:27:01;;;;;;;;;;;11.30;72.90;;;;;;9181032;19;19917;-67
2023/04/24 07:30:05;;;;;;;;;;;11.30;73.20;;;;;;9182175;19;19914;-68
2023/04/24 07:33:13;;;;;;;;;;;11.30;73.40;;;;;;9180671;19;20261;-67
2023/04/24 07:36:18;;;;;;;;;;;11.30;73.20;;;;;;9176522;19;19939;-67
2023/04/24 07:39:26;;;;;;;;;;;11.40;73.30;;;;;;9182089;19;19922;-67
2023/04/24 07:42:30;;;;;;;;;;;11.30;73.10;;;;;;9174490;19;19930;-67
2023/04/24 07:45:37;;;;;;;;;;;11.40;73.10;;;;;;9171928;19;19922;-67
2023/04/24 07:48:41;;;;;;;;;;;11.40;72.70;;;;;;9174975;19;19933;-67
2023/04/24 07:51:47;;;;;;;;;;;11.40;72.70;;;;;;9174262;19;19922;-67
2023/04/24 07:54:58;;;;;;;;;;;11.40;72.70;;;;;;9172490;19;20338;-67
2023/04/24 07:58:03;;;;;;;;;;;11.50;73.20;;;;;;9178900;19;20291;-65
2023/04/24 08:01:07;;;;;;;;;;;11.50;73.20;;;;;;9176835;19;19919;-65
2023/04/24 08:04:13;;;;;;;;;;;11.40;73.20;;;;;;9171879;19;19937;-64
2023/04/24 08:07:17;;;;;;;;;;;11.50;73.10;;;;;;9170719;19;19927;-63
2023/04/24 08:10:25;;;;;;;;;;;11.40;73.00;;;;;;9172049;19;19926;-64
2023/04/24 08:13:29;;;;;;;;;;;11.50;73.30;;;;;;9165302;19;20420;-64
2023/04/24 08:16:35;;;;;;;;;;;11.50;73.10;;;;;;9171446;19;20248;-63
2023/04/24 08:19:39;;;;;;;;;;;11.80;73.70;;;;;;9172214;19;20011;-64
2023/04/24 08:22:47;;;;;;;;;;;11.50;73.20;;;;;;9170901;19;19930;-63
2023/04/24 08:25:52;;;;;;;;;;;11.50;73.00;;;;;;9170441;19;19919;-63
2023/04/24 08:28:59;;;;;;;;;;;11.50;72.90;;;;;;9172569;19;19918;-63
2023/04/24 08:32:02;;;;;;;;;;;11.60;73.30;;;;;;9168542;19;19918;-63
2023/04/24 08:35:10;;;;;;;;;;;11.60;73.40;;;;;;9169600;19;19919;-63
2023/04/24 08:38:13;;;;;;;;;;;11.60;73.10;;;;;;9166616;19;19906;-64
2023/04/24 08:41:22;;;;;;;;;;;11.60;72.90;;;;;;9168017;19;19918;-63
2023/04/24 08:44:26;;;;;;;;;;;11.70;73.10;;;;;;9170315;19;19922;-63
2023/04/24 08:47:32;;;;;;;;;;;11.70;73.20;;;;;;9168262;19;19925;-64
2023/04/24 08:50:36;;;;;;;;;;;11.70;73.30;;;;;;9164137;19;20483;-63
2023/04/24 08:53:42;;;;;;;;;;;11.70;73.30;;;;;;9164637;19;19918;-63
2023/04/24 08:56:49;;;;;;;;;;;11.70;73.40;;;;;;9168777;19;19930;-64
2023/04/24 08:59:55;;;;;;;;;;;11.70;73.40;;;;;;9170648;19;19929;-63
2023/04/24 09:02:59;;;;;;;;;;;11.80;73.40;;;;;;9160748;19;19923;-63
2023/04/24 09:06:05;;;;;;;;;;;11.80;73.70;;;;;;9168129;19;19925;-63
2023/04/24 09:09:10;;;;;;;;;;;11.80;73.20;;;;;;9166960;19;20603;-63
2023/04/24 09:12:17;;;;;;;;;;;11.80;73.30;;;;;;9169572;19;19919;-64
2023/04/24 09:15:21;;;;;;;;;;;11.80;73.40;;;;;;9166660;19;19922;-63
2023/04/24 09:18:27;;;;;;;;;;;11.90;73.80;;;;;;9166432;19;19926;-64
2023/04/24 09:21:33;;;;;;;;;;;11.80;73.50;;;;;;9164176;19;19922;-63
2023/04/24 09:24:40;;;;;;;;;;;11.80;73.70;;;;;;9167907;19;19922;-63
2023/04/24 09:27:46;;;;;;;;;;;11.80;73.60;;;;;;9170126;19;20347;-64
2023/04/24 09:31:03;;;;;;;;;;;11.70;73.50;;;;;;9171341;19;19919;-63
2023/04/24 09:34:07;;;;;;;;;;;11.70;73.80;;;;;;9164906;19;19926;-64
2023/04/24 09:37:13;;;;;;;;;;;11.70;74.10;;;;;;9160477;19;19915;-63
2023/04/24 09:40:18;;;;;;;;;;;11.60;73.60;;;;;;9167849;19;19931;-62
2023/04/24 09:43:28;;;;;;;;;;;11.50;73.70;;;;;;9170752;19;20505;-63
2023/04/24 09:46:33;;;;;;;;;;;11.50;73.40;;;;;;9165640;19;19923;-63
2023/04/24 09:49:41;;;;;;;;;;;11.50;73.80;;;;;;9168612;19;19919;-62
2023/04/24 09:52:46;;;;;;;;;;;11.40;73.60;;;;;;9164006;19;19927;-65
2023/04/24 09:55:52;;;;;;;;;;;11.40;73.50;;;;;;9166692;19;19934;-65
2023/04/24 09:59:05;;;;;;;;;;;11.40;73.90;;;;;;9155327;19;20052;-64
2023/04/24 10:02:18;;;;;;;;;;;11.60;73.90;;;;;;9156302;19;19927;-68
2023/04/24 10:05:25;;;;;;;;;;;11.40;74.10;;;;;;9164832;19;20451;-68
2023/04/24 10:08:35;;;;;;;;;;;11.40;74.10;;;;;;9158412;19;20323;-69
2023/04/24 10:11:39;;;;;;;;;;;11.30;73.70;;;;;;9164317;19;20347;-69
2023/04/24 10:14:47;;;;;;;;;;;11.30;74.30;;;;;;9159153;19;19933;-71
2023/04/24 10:17:53;;;;;;;;;;;11.40;74.30;;;;;;9170776;19;19921;-69
2023/04/24 10:21:02;;;;;;;;;;;11.30;73.90;;;;;;9165833;19;19919;-69
2023/04/24 10:24:07;;;;;;;;;;;11.30;73.50;;;;;;9166939;19;20348;-68
2023/04/24 10:27:15;;;;;;;;;;;11.30;73.70;;;;;;9163802;19;19923;-69
2023/04/24 10:30:21;;;;;;;;;;;11.30;74.10;;;;;;9145307;19;20543;-69
2023/04/24 10:33:27;;;;;;;;;;;11.30;73.70;;;;;;9155861;19;20291;-69
2023/04/24 10:36:32;;;;;;;;;;;11.40;74.00;;;;;;9167603;19;20316;-68
2023/04/24 10:39:40;;;;;;;;;;;11.40;74.20;;;;;;9165189;19;19919;-68
2023/04/24 10:42:44;;;;;;;;;;;11.40;74.40;;;;;;9153021;19;19922;-68
2023/04/24 10:46:04;;;;;;;;;;;11.40;74.00;;;;;;9162491;19;20343;-68
2023/04/24 10:49:09;;;;;;;;;;;11.40;73.30;;;;;;9164644;19;19970;-69
2023/04/24 10:52:16;;;;;;;;;;;11.40;73.60;;;;;;9165610;19;19942;-69
2023/04/24 10:55:35;;;;;;;;;;;11.50;74.00;;;;;;9160801;19;20695;-69
2023/04/24 10:58:44;;;;;;;;;;;11.40;74.10;;;;;;9165332;19;19918;-69
2023/04/24 11:01:54;;;;;;;;;;;11.40;73.70;;;;;;9165718;19;19926;-69
2023/04/24 11:05:00;;;;;;;;;;;11.40;74.50;;;;;;9166118;19;19915;-69
2023/04/24 11:08:13;;;;;;;;;;;11.30;73.90;;;;;;9164442;19;19946;-69
2023/04/24 11:11:20;;;;;;;;;;;11.20;73.80;;;;;;9176176;19;20265;-68
2023/04/24 11:14:24;;;;;;;;;;;11.30;73.90;;;;;;9179670;19;19934;-68
2023/04/24 11:17:37;;;;;;;;;;;11.20;73.70;;;;;;9179493;19;19918;-68
2023/04/24 11:20:43;;;;;;;;;;;11.10;73.60;;;;;;9172263;19;19926;-69
2023/04/24 11:23:50;;;;;;;;;;;11.10;73.80;;;;;;9172703;19;20337;-68
2023/04/24 11:26:55;;;;;;;;;;;11.10;74.20;;;;;;9171102;19;19929;-68
2023/04/24 11:30:01;;;;;;;;;;;11.10;74.20;;;;;;9170215;19;19918;-69
2023/04/24 11:33:10;;;;;;;;;;;11.10;74.30;;;;;;9168467;19;19929;-69
2023/04/24 11:36:16;;;;;;;;;;;11.20;74.00;;;;;;9170307;19;19922;-69
2023/04/24 11:39:19;;;;;;;;;;;11.20;74.10;;;;;;9168839;19;20486;-68
2023/04/24 11:42:25;;;;;;;;;;;11.20;74.20;;;;;;9170610;19;20351;-68
2023/04/24 11:45:30;;;;;;;;;;;11.30;74.30;;;;;;9170871;19;19994;-68
2023/04/24 11:48:40;;;;;;;;;;;11.30;74.30;;;;;;9172473;19;20341;-68
2023/04/24 11:51:43;;;;;;;;;;;11.30;74.00;;;;;;9168345;19;20023;-68
2023/04/24 11:54:59;;;;;;;;;;;11.40;74.50;;;;;;9161960;19;19925;-67
2023/04/24 11:58:03;;;;;;;;;;;11.40;74.30;;;;;;9171575;19;19956;-69
2023/04/24 12:01:09;;;;;;;;;;;11.40;74.10;;;;;;9169211;19;19927;-69
2023/04/24 12:04:15;;;;;;;;;;;11.40;74.50;;;;;;9163315;19;19933;-68
2023/04/24 12:07:21;;;;;;;;;;;11.40;74.30;;;;;;9163922;19;19911;-69
2023/04/24 12:10:26;;;;;;;;;;;11.40;74.40;;;;;;9163560;19;19930;-68
2023/04/24 12:13:32;;;;;;;;;;;11.40;74.20;;;;;;9160934;19;21754;-69
2023/04/24 12:16:35;;;;;;;;;;;11.40;74.40;;;;;;9163907;19;19929;-68
2023/04/24 12:19:48;;;;;;;;;;;11.40;74.30;;;;;;9164089;19;19919;-69
2023/04/24 12:22:54;;;;;;;;;;;11.40;74.10;;;;;;9163785;19;19946;-68
2023/04/24 12:26:01;;;;;;;;;;;11.50;74.60;;;;;;9166034;19;20400;-68
2023/04/24 12:29:05;;;;;;;;;;;11.50;74.30;;;;;;9164525;19;19919;-68
2023/04/24 12:32:17;;;;;;;;;;;11.50;74.10;;;;;;9163572;19;19938;-69
2023/04/24 12:35:23;;;;;;;;;;;11.60;74.10;;;;;;9168078;19;19918;-68
2023/04/24 12:38:30;;;;;;;;;;;11.60;74.10;;;;;;9169103;19;19910;-68
2023/04/24 12:41:34;;;;;;;;;;;11.60;74.00;;;;;;9168249;19;19933;-70
2023/04/24 12:44:40;;;;;;;;;;;11.60;73.80;;;;;;9163884;19;19919;-68
2023/04/24 12:47:44;;;;;;;;;;;11.60;73.90;;;;;;9164512;19;19929;-68
2023/04/24 12:50:52;;;;;;;;;;;11.70;74.40;;;;;;9163035;19;19914;-68
2023/04/24 12:53:56;;;;;;;;;;;11.70;74.20;;;;;;9161349;19;19922;-68
2023/04/24 12:57:01;;;;;;;;;;;12.00;74.30;;;;;;9165434;19;19910;-68
2023/04/24 13:00:06;;;;;;;;;;;11.70;74.10;;;;;;9163797;19;20364;-68
2023/04/24 13:03:12;;;;;;;;;;;11.70;74.10;;;;;;9167232;19;20268;-68
2023/04/24 13:06:18;;;;;;;;;;;11.80;74.30;;;;;;9162810;19;19948;-67
2023/04/24 13:09:24;;;;;;;;;;;11.80;74.30;;;;;;9164537;19;20337;-68
2023/04/24 13:12:28;;;;;;;;;;;11.70;74.00;;;;;;9162291;19;19918;-69
2023/04/24 13:15:34;;;;;;;;;;;11.70;73.80;;;;;;9161329;19;19930;-69
2023/04/24 13:18:37;;;;;;;;;;;11.70;73.90;;;;;;9166804;19;19918;-68
2023/04/24 13:21:45;;;;;;;;;;;11.70;74.00;;;;;;9171569;19;19918;-68
2023/04/24 13:24:51;;;;;;;;;;;11.80;74.00;;;;;;9171899;19;19929;-68
2023/04/24 13:27:57;;;;;;;;;;;11.80;74.20;;;;;;9164677;19;19915;-68
2023/04/24 13:31:01;;;;;;;;;;;11.80;74.40;;;;;;9153896;19;19945;-68
2023/04/24 13:34:07;;;;;;;;;;;11.70;74.40;;;;;;9160329;19;20367;-69
2023/04/24 13:37:12;;;;;;;;;;;11.70;74.00;;;;;;9166457;19;20002;-68
2023/04/24 13:40:18;;;;;;;;;;;11.70;74.10;;;;;;9162410;19;19918;-68
2023/04/24 13:43:22;;;;;;;;;;;11.70;73.90;;;;;;9164125;19;20554;-68
2023/04/24 13:46:28;;;;;;;;;;;11.70;74.00;;;;;;9161090;19;20281;-68
2023/04/24 13:49:32;;;;;;;;;;;11.70;74.10;;;;;;9163457;19;20276;-70
2023/04/24 13:52:40;;;;;;;;;;;11.60;73.90;;;;;;9160154;19;19929;-68
2023/04/24 13:55:44;;;;;;;;;;;11.60;74.10;;;;;;9160325;19;19922;-69
2023/04/24 13:58:50;;;;;;;;;;;11.70;74.70;;;;;;9160621;19;19917;-68
2023/04/24 14:01:54;;;;;;;;;;;11.60;73.80;;;;;;9162254;19;19922;-69
2023/04/24 14:05:00;;;;;;;;;;;11.70;73.90;;;;;;9162359;19;19923;-68
2023/04/24 14:08:06;;;;;;;;;;;11.70;74.20;;;;;;9160868;19;19923;-68
2023/04/24 14:11:12;;;;;;;;;;;11.70;74.20;;;;;;9160671;19;20309;-68
2023/04/24 14:14:15;;;;;;;;;;;11.70;74.40;;;;;;9158505;19;20268;-69
2023/04/24 14:17:21;;;;;;;;;;;11.70;74.10;;;;;;9158454;19;20545;-68
2023/04/24 14:20:25;;;;;;;;;;;11.60;74.00;;;;;;9161097;19;19927;-68
2023/04/24 14:23:33;;;;;;;;;;;11.70;74.10;;;;;;9159947;19;19918;-69
2023/04/24 14:26:37;;;;;;;;;;;11.70;74.20;;;;;;9157340;19;19919;-69
2023/04/24 14:29:42;;;;;;;;;;;11.70;74.40;;;;;;9156769;19;19942;-68
2023/04/24 14:32:46;;;;;;;;;;;11.70;74.40;;;;;;9161338;19;20617;-69
2023/04/24 14:35:52;;;;;;;;;;;11.70;74.40;;;;;;9160117;19;19930;-69
2023/04/24 14:38:58;;;;;;;;;;;11.80;74.40;;;;;;9158874;19;20306;-68
2023/04/24 14:42:05;;;;;;;;;;;11.70;74.40;;;;;;9159990;19;19922;-69
2023/04/24 14:45:09;;;;;;;;;;;11.80;74.00;;;;;;9167115;19;19918;-69
2023/04/24 14:48:16;;;;;;;;;;;11.80;74.50;;;;;;9175147;19;19922;-69
2023/04/24 14:51:20;;;;;;;;;;;11.80;74.30;;;;;;9182383;19;19930;-69
2023/04/24 14:54:27;;;;;;;;;;;11.80;74.30;;;;;;9182030;19;20249;-70
2023/04/24 14:57:31;;;;;;;;;;;11.80;74.50;;;;;;9182516;19;19930;-69
2023/04/24 15:00:37;;;;;;;;;;;11.80;74.50;;;;;;9182864;19;20333;-69
2023/04/24 15:03:40;;;;;;;;;;;11.80;74.70;;;;;;9182437;19;19926;-68
2023/04/24 15:06:46;;;;;;;;;;;11.80;74.30;;;;;;9182190;19;19922;-69
2023/04/24 15:09:52;;;;;;;;;;;11.80;74.50;;;;;;9183525;19;19918;-68
2023/04/24 15:12:58;;;;;;;;;;;11.80;74.10;;;;;;9182067;19;20541;-69
2023/04/24 15:16:01;;;;;;;;;;;11.80;74.20;;;;;;9174184;19;19926;-69
2023/04/24 15:19:07;;;;;;;;;;;11.80;74.60;;;;;;9170116;19;20356;-69
2023/04/24 15:22:11;;;;;;;;;;;11.80;74.40;;;;;;9170600;19;19959;-69
2023/04/24 15:25:19;;;;;;;;;;;11.80;74.40;;;;;;9171452;19;19922;-69
2023/04/24 15:28:23;;;;;;;;;;;11.80;74.10;;;;;;9178036;19;19919;-70
2023/04/24 15:31:28;;;;;;;;;;;11.90;74.40;;;;;;9167586;19;20451;-66
2023/04/24 15:34:32;;;;;;;;;;;11.80;74.90;;;;;;9175349;19;19933;-67
2023/04/24 15:37:38;;;;;;;;;;;11.80;74.50;;;;;;9174865;19;19934;-67
2023/04/24 15:40:44;;;;;;;;;;;11.90;74.90;;;;;;9170014;19;19922;-67
2023/04/24 15:43:50;;;;;;;;;;;11.80;74.90;;;;;;9173267;19;19923;-69
2023/04/24 15:46:54;;;;;;;;;;;11.80;74.60;;;;;;9174396;19;19922;-67
2023/04/24 15:50:00;;;;;;;;;;;11.90;74.50;;;;;;9172239;19;19911;-68
2023/04/24 15:53:04;;;;;;;;;;;11.80;74.10;;;;;;9174306;19;19915;-69
2023/04/24 15:56:11;;;;;;;;;;;11.80;74.00;;;;;;9167206;19;19927;-68
2023/04/24 15:59:15;;;;;;;;;;;11.90;74.10;;;;;;9173207;19;19926;-68
2023/04/24 16:02:21;;;;;;;;;;;11.90;74.30;;;;;;9174275;19;20375;-68
2023/04/24 16:05:27;;;;;;;;;;;12.00;74.60;;;;;;9170875;19;19941;-68
2023/04/24 16:08:32;;;;;;;;;;;12.00;74.50;;;;;;9174180;19;19929;-68
2023/04/24 16:11:38;;;;;;;;;;;12.00;74.30;;;;;;9171191;19;19927;-69
2023/04/24 16:14:44;;;;;;;;;;;12.00;74.20;;;;;;9172484;19;19927;-68
2023/04/24 16:17:47;;;;;;;;;;;12.00;74.50;;;;;;9174531;19;19923;-69
2023/04/24 16:20:54;;;;;;;;;;;12.00;74.50;;;;;;9170570;19;19918;-69
2023/04/24 16:23:57;;;;;;;;;;;12.00;74.20;;;;;;9171420;19;19923;-68
2023/04/24 16:27:05;;;;;;;;;;;12.00;74.20;;;;;;9173118;19;19929;-69
2023/04/24 16:30:09;;;;;;;;;;;12.00;73.90;;;;;;9169306;19;19960;-68
2023/04/24 16:33:15;;;;;;;;;;;12.00;74.20;;;;;;9171858;19;19923;-68
2023/04/24 16:36:19;;;;;;;;;;;11.90;74.10;;;;;;9169012;19;19927;-69
2023/04/24 16:39:25;;;;;;;;;;;11.90;74.20;;;;;;9178190;19;19911;-69
2023/04/24 16:42:31;;;;;;;;;;;11.90;74.00;;;;;;9178137;19;19922;-69
2023/04/24 16:45:37;;;;;;;;;;;11.90;73.90;;;;;;9179223;19;20273;-68
2023/04/24 16:48:41;;;;;;;;;;;11.90;74.30;;;;;;9179913;19;20158;-68
2023/04/24 16:51:46;;;;;;;;;;;11.90;74.40;;;;;;9179138;19;19927;-68
2023/04/24 16:54:50;;;;;;;;;;;11.80;73.80;;;;;;9176383;19;19971;-68
2023/04/24 16:57:58;;;;;;;;;;;11.90;74.00;;;;;;9173647;19;20352;-68
2023/04/24 17:01:02;;;;;;;;;;;11.80;73.60;;;;;;9173938;19;19922;-68
2023/04/24 17:04:08;;;;;;;;;;;11.70;74.20;;;;;;9173060;19;19942;-68
2023/04/24 17:07:12;;;;;;;;;;;11.70;73.90;;;;;;9168456;19;19918;-68
2023/04/24 17:10:18;;;;;;;;;;;11.70;73.90;;;;;;9168998;19;19922;-69
2023/04/24 17:13:23;;;;;;;;;;;11.70;74.10;;;;;;9169115;19;19923;-70
2023/04/24 17:16:29;;;;;;;;;;;11.70;74.00;;;;;;9168693;19;19930;-69
2023/04/24 17:19:33;;;;;;;;;;;11.70;74.20;;;;;;9171091;19;19922;-68
2023/04/24 17:22:39;;;;;;;;;;;11.60;74.20;;;;;;9171348;19;19930;-69
2023/04/24 17:25:42;;;;;;;;;;;11.60;74.00;;;;;;9171977;19;20378;-68
2023/04/24 17:29:02;;;;;;;;;;;11.60;73.70;;;;;;9171688;19;19915;-68
2023/04/24 17:32:06;;;;;;;;;;;11.60;73.30;;;;;;9166083;19;19923;-68
2023/04/24 17:35:12;;;;;;;;;;;11.60;73.70;;;;;;9169571;19;19934;-68
2023/04/24 17:38:15;;;;;;;;;;;11.50;73.80;;;;;;9168800;19;19955;-68
2023/04/24 17:41:21;;;;;;;;;;;11.50;73.70;;;;;;9166294;19;19911;-67
2023/04/24 17:44:27;;;;;;;;;;;11.50;73.80;;;;;;9162547;19;19918;-68
2023/04/24 17:47:33;;;;;;;;;;;11.50;73.30;;;;;;9167974;19;19948;-68
2023/04/24 17:50:36;;;;;;;;;;;11.40;73.40;;;;;;9170977;19;19915;-68
2023/04/24 17:53:43;;;;;;;;;;;11.40;73.00;;;;;;9169338;19;19915;-68
2023/04/24 17:56:47;;;;;;;;;;;11.40;73.30;;;;;;9166307;19;20036;-68
2023/04/24 17:59:54;;;;;;;;;;;11.40;72.80;;;;;;9170109;19;19935;-68
2023/04/24 18:02:59;;;;;;;;;;;11.40;72.80;;;;;;9171620;19;19925;-68